Terminal Aerodrome Forecast
Issued by NWS

Home | Current Version | Previous Version | Text Only | Print | Product List | Glossary On
Versions: 1 2 3 4 5 6 7 8 9 10 11 12 13 14 15 16 17 18 19 20 21 22 23 24 25 26 27 28 29 30 31 32 33 34 35 36 37 38 39 40 41
000
FTAK31 PANC 050533
TAFADQ
TAF
PADQ 050533Z 0506/0606 13009KT P6SM FEW010 SCT025 BKN090
     FM051200 09007KT 6SM -SHRA SCT008 OVC015
     FM051600 09014KT 3SM -RA BR OVC008=

USA.gov is the U.S. government's official web portal to all federal, state and local government web resources and services.